Mapleton, Maine
Current Conditions -  °F | °C
As of 10:55 PM on Saturday 25 Oct 2014 (Local Time) from KPQI Reporting Station
Overcast Overcast  
Wind Chill: 40°   Ceiling: 600
Heat Index: 43°   Visibility: 10mi
Dew Point: 39°   Wind: 5mph
Humidity: 87%   Direction: 160°SSE
Pressure: 29.48"   Gusts: NA
Location:  46.68°N, 68.16°W
Report Text: KPQI 260255Z AUTO 16004KT 10SM OVC006 06/04 A2948 RMK AO1 57017
Loading
Personal Weather Stations






























Interactive Weather Map
Tropical Storm Tracking
New forecast layout! Learn more

10-Day Weather Forecast

Advertisements
Track Severe Weather on mobile